Time;durP1;ratioP1;P1;durP2;ratioP2;P2;SDS_P1;SDS_P2;PMS_P1;PMS_P2;Temp;Humidity;BMP_temperature;BMP_pressure;BME280_temperature;BME280_humidity;BME280_pressure;Samples;Min_cycle;Max_cycle;Signal;HPM_P1;HPM_P2
2022/08/27 00:01:35;;;;;;;14.93;8.83;;;21.50;99.90;;;;;;4827539;29;20238;-72
2022/08/27 00:04:02;;;;;;;17.77;9.00;;;21.50;99.90;;;;;;4828268;29;20591;-81
2022/08/27 00:06:29;;;;;;;14.43;9.00;;;21.40;99.90;;;;;;4827697;29;20297;-75
2022/08/27 00:08:57;;;;;;;17.80;8.73;;;21.50;99.90;;;;;;4843515;29;20206;-73
2022/08/27 00:11:27;;;;;;;12.87;8.63;;;21.40;99.90;;;;;;4827842;29;20242;-75
2022/08/27 00:13:55;;;;;;;15.97;9.00;;;21.50;99.90;;;;;;4843390;29;20198;-74
2022/08/27 00:16:23;;;;;;;15.40;8.63;;;21.30;99.90;;;;;;4827830;29;20716;-74
2022/08/27 00:18:53;;;;;;;19.57;9.53;;;21.40;99.90;;;;;;4844171;29;20191;-74
2022/08/27 00:21:21;;;;;;;14.67;8.73;;;21.30;99.90;;;;;;4827664;29;20297;-79
2022/08/27 00:23:49;;;;;;;18.20;9.10;;;21.30;99.90;;;;;;4843974;29;20232;-73
2022/08/27 00:26:16;;;;;;;19.07;9.47;;;21.30;99.90;;;;;;4844041;29;20198;-79
2022/08/27 00:28:43;;;;;;;16.73;9.27;;;21.30;99.90;;;;;;4827370;29;20648;-73
2022/08/27 00:31:10;;;;;;;16.43;9.30;;;21.20;99.90;;;;;;4827645;29;20234;-73
2022/08/27 00:33:39;;;;;;;14.10;8.50;;;21.20;99.90;;;;;;4826949;29;20236;-74
2022/08/27 00:36:06;;;;;;;18.50;9.80;;;21.20;99.90;;;;;;4843585;29;20317;-75
2022/08/27 00:38:34;;;;;;;15.23;9.07;;;21.10;99.90;;;;;;4812654;29;20199;-75
2022/08/27 00:41:01;;;;;;;16.80;9.17;;;21.10;99.90;;;;;;4827283;29;20309;-73
2022/08/27 00:43:44;;;;;;;17.00;9.97;;;21.10;99.90;;;;;;4843438;29;20218;-72
2022/08/27 00:46:24;;;;;;;15.33;9.60;;;21.10;99.90;;;;;;4827265;29;20297;-73
2022/08/27 00:48:55;;;;;;;16.47;9.70;;;21.00;99.90;;;;;;4837020;24;20249;-74
2022/08/27 00:51:24;;;;;;;14.10;9.17;;;21.00;99.90;;;;;;4843607;29;20237;-73
2022/08/27 00:53:53;;;;;;;19.60;10.13;;;21.00;99.90;;;;;;4843644;29;20623;-74
2022/08/27 00:56:23;;;;;;;18.60;9.83;;;21.00;99.90;;;;;;4842649;29;20202;-73
2022/08/27 00:58:52;;;;;;;15.67;9.50;;;20.90;99.90;;;;;;4842405;29;20203;-75
2022/08/27 01:01:25;;;;;;;16.13;9.50;;;20.90;99.90;;;;;;4842088;29;20202;-74
2022/08/27 01:03:57;;;;;;;19.87;9.50;;;20.90;99.90;;;;;;4843559;29;20230;-75
2022/08/27 01:06:31;;;;;;;13.90;8.97;;;20.80;99.90;;;;;;4843304;29;20566;-75
2022/08/27 01:09:06;;;;;;;19.10;9.23;;;20.80;99.90;;;;;;4842313;29;20250;-75
2022/08/27 01:11:33;;;;;;;15.67;9.30;;;20.80;99.90;;;;;;4857225;29;20723;-74
2022/08/27 01:14:02;;;;;;;14.57;9.00;;;20.80;99.90;;;;;;4856946;29;20210;-75
2022/08/27 01:16:34;;;;;;;15.93;9.43;;;20.80;99.90;;;;;;4857547;29;20274;-74
2022/08/27 01:19:06;;;;;;;14.83;9.80;;;20.70;99.90;;;;;;4843006;29;20627;-75
2022/08/27 01:21:37;;;;;;;16.63;10.27;;;20.70;99.90;;;;;;4857347;29;20301;-75
2022/08/27 01:24:25;;;;;;;15.00;9.97;;;20.70;99.90;;;;;;4857445;29;20234;-77
2022/08/27 01:26:53;;;;;;;15.03;9.50;;;20.60;99.90;;;;;;4843051;29;20242;-75
2022/08/27 01:29:20;;;;;;;14.33;9.93;;;20.60;99.90;;;;;;4841874;29;20205;-75
2022/08/27 01:31:47;;;;;;;15.33;10.17;;;20.60;99.90;;;;;;4856653;29;20198;-74
2022/08/27 01:34:15;;;;;;;14.37;9.80;;;20.60;99.90;;;;;;4842025;29;20214;-73
2022/08/27 01:36:41;;;;;;;21.20;9.90;;;20.60;99.90;;;;;;4846935;29;20258;-74
2022/08/27 01:39:08;;;;;;;18.40;9.93;;;20.50;99.90;;;;;;4823488;29;20230;-74
2022/08/27 01:41:38;;;;;;;14.50;8.90;;;20.50;99.90;;;;;;4824772;29;20721;-74
2022/08/27 01:44:05;;;;;;;14.07;9.23;;;20.50;99.90;;;;;;4823120;29;20234;-75
2022/08/27 01:46:32;;;;;;;13.80;9.40;;;20.50;99.90;;;;;;4823268;29;20240;-74
2022/08/27 01:48:59;;;;;;;14.60;9.30;;;20.50;99.90;;;;;;4823122;29;20250;-74
2022/08/27 01:51:26;;;;;;;15.50;10.10;;;20.50;99.90;;;;;;4823455;29;20238;-74
2022/08/27 01:53:53;;;;;;;18.30;9.60;;;20.50;99.90;;;;;;4823360;29;20214;-74
2022/08/27 01:56:20;;;;;;;16.00;9.83;;;20.50;99.90;;;;;;4823317;29;20211;-74
2022/08/27 01:58:47;;;;;;;17.03;9.93;;;20.50;99.90;;;;;;4823381;29;20198;-74
2022/08/27 02:01:18;;;;;;;13.37;9.50;;;20.40;99.90;;;;;;4824579;29;20238;-75
2022/08/27 02:03:47;;;;;;;19.60;10.43;;;20.40;99.90;;;;;;4823300;29;20233;-75
2022/08/27 02:06:14;;;;;;;18.93;10.23;;;20.40;99.90;;;;;;4823518;29;20289;-74
2022/08/27 02:08:41;;;;;;;16.87;10.17;;;20.40;99.90;;;;;;4823454;29;20202;-74
2022/08/27 02:11:08;;;;;;;17.40;10.10;;;20.50;99.90;;;;;;4823150;29;20238;-74
2022/08/27 02:13:36;;;;;;;14.80;9.77;;;20.30;99.90;;;;;;4824282;29;20206;-73
2022/08/27 02:16:04;;;;;;;14.70;10.10;;;20.30;99.90;;;;;;4822998;29;20259;-73
2022/08/27 02:18:31;;;;;;;15.67;10.40;;;20.20;99.90;;;;;;4823019;29;20207;-73
2022/08/27 02:20:58;;;;;;;15.77;10.50;;;20.20;99.90;;;;;;4823063;29;20252;-73
2022/08/27 02:23:25;;;;;;;14.70;10.37;;;20.20;99.90;;;;;;4823098;29;20235;-73
2022/08/27 02:25:53;;;;;;;19.17;10.47;;;20.20;99.90;;;;;;4822904;29;20685;-73
2022/08/27 02:28:20;;;;;;;18.43;10.50;;;20.20;99.90;;;;;;4823176;29;20246;-74
2022/08/27 02:30:47;;;;;;;19.87;11.43;;;20.20;99.90;;;;;;4823959;29;20195;-73
2022/08/27 02:33:15;;;;;;;15.20;10.57;;;20.20;99.90;;;;;;4822725;29;20246;-73
2022/08/27 02:35:43;;;;;;;18.83;11.20;;;20.20;99.90;;;;;;4824235;29;20235;-73
2022/08/27 02:38:12;;;;;;;17.50;11.07;;;20.10;99.90;;;;;;4822908;29;20542;-74
2022/08/27 02:40:39;;;;;;;18.43;10.67;;;20.10;99.90;;;;;;4823097;29;20207;-74
2022/08/27 02:43:06;;;;;;;22.73;10.83;;;20.10;99.90;;;;;;4824144;29;20310;-74
2022/08/27 02:45:35;;;;;;;17.07;10.77;;;20.00;99.90;;;;;;4823057;29;20207;-74
2022/08/27 02:48:03;;;;;;;16.80;10.87;;;20.00;99.90;;;;;;4822459;29;20199;-74
2022/08/27 02:50:30;;;;;;;17.40;11.03;;;20.00;99.90;;;;;;4807739;29;20195;-74
2022/08/27 02:52:58;;;;;;;15.87;10.87;;;19.90;99.90;;;;;;4807828;29;20642;-73
2022/08/27 02:55:25;;;;;;;18.73;11.67;;;19.90;99.90;;;;;;4807464;29;20223;-75
2022/08/27 02:57:53;;;;;;;19.83;11.67;;;19.90;99.90;;;;;;4827114;29;20256;-75
2022/08/27 03:00:21;;;;;;;18.77;11.43;;;19.80;99.90;;;;;;4811419;29;20248;-75
2022/08/27 03:02:48;;;;;;;15.73;11.30;;;19.80;99.90;;;;;;4827032;29;20277;-74
2022/08/27 03:05:17;;;;;;;17.90;12.23;;;19.80;99.90;;;;;;4827184;29;20207;-74
2022/08/27 03:07:44;;;;;;;17.57;12.03;;;19.70;99.90;;;;;;4810959;29;20312;-74
2022/08/27 03:10:13;;;;;;;21.27;13.00;;;19.70;99.90;;;;;;4827065;29;20206;-74
2022/08/27 03:12:41;;;;;;;19.97;12.27;;;19.70;99.90;;;;;;4810404;29;20236;-74
2022/08/27 03:15:11;;;;;;;20.17;12.67;;;19.60;99.90;;;;;;4810859;29;20246;-74
2022/08/27 03:20:24;;;;;;;19.13;12.73;;;19.50;99.90;;;;;;4810686;29;20681;-73
2022/08/27 03:22:52;;;;;;;19.27;13.00;;;19.50;99.90;;;;;;4810441;29;20227;-74
2022/08/27 03:25:19;;;;;;;18.83;12.67;;;19.50;99.90;;;;;;4810589;29;20309;-74
2022/08/27 03:27:46;;;;;;;24.13;12.73;;;19.40;99.90;;;;;;4810728;29;20298;-76
2022/08/27 03:30:16;;;;;;;20.63;13.30;;;19.40;99.90;;;;;;4795716;29;20264;-75
2022/08/27 03:32:43;;;;;;;21.00;12.53;;;19.50;99.90;;;;;;4825359;29;20234;-74
2022/08/27 03:35:11;;;;;;;18.93;12.53;;;19.50;99.90;;;;;;4825364;29;20203;-74
2022/08/27 03:37:38;;;;;;;22.33;13.30;;;19.40;99.90;;;;;;4810675;29;20256;-75
2022/08/27 03:40:06;;;;;;;20.57;13.57;;;19.40;99.90;;;;;;4810153;29;20242;-75
2022/08/27 03:42:34;;;;;;;20.13;13.77;;;19.40;99.90;;;;;;4810333;29;20270;-75
2022/08/27 03:45:01;;;;;;;19.83;13.77;;;19.40;99.90;;;;;;4825502;29;20302;-74
2022/08/27 03:47:28;;;;;;;19.73;12.77;;;19.40;99.90;;;;;;4810438;29;20302;-75
2022/08/27 03:49:55;;;;;;;23.27;13.83;;;19.40;99.90;;;;;;4821743;29;20701;-75
2022/08/27 03:52:22;;;;;;;24.13;13.63;;;19.30;99.90;;;;;;4826241;29;20264;-74
2022/08/27 03:54:49;;;;;;;20.43;13.47;;;19.30;99.90;;;;;;4825450;29;20611;-74
2022/08/27 03:57:16;;;;;;;19.27;13.33;;;19.30;99.90;;;;;;4826562;29;20558;-73
2022/08/27 03:59:43;;;;;;;26.77;13.90;;;19.20;99.90;;;;;;4826533;29;20321;-74
2022/08/27 04:02:11;;;;;;;24.30;14.17;;;19.30;99.90;;;;;;4824953;29;20255;-74
2022/08/27 04:04:40;;;;;;;29.83;14.53;;;19.30;99.90;;;;;;4824728;29;20573;-74
2022/08/27 04:07:09;;;;;;;23.30;13.40;;;19.30;99.90;;;;;;4825831;29;20298;-73
2022/08/27 04:09:36;;;;;;;19.83;13.33;;;19.30;99.90;;;;;;4824846;29;20263;-73
2022/08/27 04:12:03;;;;;;;25.43;14.30;;;19.30;99.90;;;;;;4824867;29;20704;-74
2022/08/27 04:14:30;;;;;;;22.80;13.70;;;19.30;99.90;;;;;;4825045;29;20638;-74
2022/08/27 04:16:57;;;;;;;17.77;12.67;;;19.30;99.90;;;;;;4825912;29;20187;-74
2022/08/27 04:19:29;;;;;;;20.80;13.23;;;19.40;99.90;;;;;;4824472;29;20210;-74
2022/08/27 04:22:05;;;;;;;25.60;13.60;;;19.30;99.90;;;;;;4825868;29;20218;-74
2022/08/27 04:24:34;;;;;;;20.17;13.37;;;19.20;99.90;;;;;;4824933;29;20321;-74
2022/08/27 04:27:01;;;;;;;23.63;14.20;;;19.30;99.90;;;;;;4825056;29;20236;-74
2022/08/27 04:29:28;;;;;;;22.90;13.67;;;19.30;99.90;;;;;;4824880;29;20632;-74
2022/08/27 04:31:55;;;;;;;23.73;13.73;;;19.30;99.90;;;;;;4825618;29;20263;-75
2022/08/27 04:34:23;;;;;;;25.00;13.60;;;19.30;99.90;;;;;;4824567;29;20667;-74
2022/08/27 04:36:50;;;;;;;21.97;13.17;;;19.40;99.90;;;;;;4824730;29;20783;-74
2022/08/27 04:39:19;;;;;;;19.93;13.20;;;19.40;99.90;;;;;;4839656;29;20658;-75
2022/08/27 04:41:49;;;;;;;30.17;14.70;;;19.50;99.90;;;;;;4824294;29;20734;-74
2022/08/27 04:44:16;;;;;;;20.53;13.83;;;19.50;99.90;;;;;;4826002;29;20333;-75
2022/08/27 04:46:43;;;;;;;21.47;13.40;;;19.50;99.90;;;;;;4825668;29;20286;-75
2022/08/27 04:49:15;;;;;;;20.27;12.87;;;19.50;99.90;;;;;;4824267;29;20234;-83
2022/08/27 04:51:43;;;;;;;20.93;12.40;;;19.60;99.90;;;;;;4826389;29;20195;-83
2022/08/27 04:54:21;;;;;;;21.73;12.97;;;19.60;99.90;;;;;;4825040;29;20207;-89
2022/08/27 04:57:06;;;;;;;19.17;12.57;;;19.60;99.90;;;;;;4826421;29;20224;-87
2022/08/27 04:59:34;;;;;;;24.40;12.97;;;19.70;99.90;;;;;;4826075;29;20599;-88
2022/08/27 05:02:04;;;;;;;21.47;13.10;;;19.70;99.90;;;;;;4824528;29;20669;-86
2022/08/27 05:04:38;;;;;;;19.13;12.37;;;19.80;99.90;;;;;;4824802;29;20328;-87
2022/08/27 05:07:34;;;;;;;22.47;12.93;;;19.90;99.90;;;;;;4824724;29;20612;-87
2022/08/27 05:16:17;;;;;;;30.60;14.27;;;20.00;99.90;;;;;;2151051;24;20317;-88
2022/08/27 05:20:11;;;;;;;20.53;12.97;;;20.10;99.90;;;;;;4836738;24;20262;-88
2022/08/27 05:23:17;;;;;;;20.17;13.20;;;20.30;99.90;;;;;;4849335;24;20578;-86
2022/08/27 05:25:46;;;;;;;23.17;13.97;;;20.30;99.90;;;;;;4827266;29;20206;-87
2022/08/27 05:28:33;;;;;;;19.57;13.60;;;20.40;99.90;;;;;;4837613;24;20321;-84
2022/08/27 05:31:20;;;;;;;23.50;13.43;;;20.30;99.90;;;;;;4841938;29;20235;-85
2022/08/27 05:33:54;;;;;;;22.67;13.70;;;20.50;99.90;;;;;;4842315;29;20207;-88
2022/08/27 05:39:33;;;;;;;22.53;13.90;;;20.60;99.90;;;;;;4750297;27;20250;-88
2022/08/27 05:42:21;;;;;;;25.03;14.07;;;20.70;99.90;;;;;;4789514;29;20620;-87
2022/08/27 05:45:29;;;;;;;19.37;12.97;;;20.80;99.90;;;;;;4791952;24;20237;-88
2022/08/27 05:48:01;;;;;;;25.97;14.77;;;20.80;99.90;;;;;;4829003;29;20258;-90
2022/08/27 05:50:38;;;;;;;36.23;14.57;;;20.90;99.90;;;;;;4834122;24;20238;-86
2022/08/27 05:53:25;;;;;;;20.13;12.70;;;21.10;99.90;;;;;;4826993;29;20297;-90
2022/08/27 05:55:51;;;;;;;21.83;13.67;;;21.20;99.90;;;;;;4827135;29;20656;-86
2022/08/27 06:01:04;;;;;;;20.80;13.40;;;21.40;99.90;;;;;;4828876;29;20198;-89
2022/08/27 06:03:37;;;;;;;23.83;13.67;;;21.50;99.90;;;;;;4842674;29;20232;-88
2022/08/27 06:06:07;;;;;;;25.13;13.43;;;21.50;99.90;;;;;;4826922;29;20262;-89
2022/08/27 06:08:34;;;;;;;18.60;12.90;;;21.60;99.90;;;;;;4826827;29;20301;-87
2022/08/27 06:11:04;;;;;;;22.13;13.60;;;21.70;99.90;;;;;;4832148;29;20310;-88
2022/08/27 06:13:33;;;;;;;20.77;12.80;;;21.80;99.90;;;;;;4832958;29;20206;-89
2022/08/27 06:16:05;;;;;;;21.50;13.27;;;21.90;99.90;;;;;;4811701;29;20638;-89
2022/08/27 06:18:33;;;;;;;23.60;12.70;;;21.90;99.90;;;;;;4826678;29;20206;-85
2022/08/27 06:21:00;;;;;;;22.20;12.43;;;22.00;99.90;;;;;;4810716;29;20686;-88
2022/08/27 06:23:27;;;;;;;27.77;12.43;;;22.10;99.90;;;;;;4826165;29;20702;-90
2022/08/27 06:25:55;;;;;;;18.70;11.83;;;22.10;99.90;;;;;;4827054;29;20214;-88
2022/08/27 06:28:28;;;;;;;18.23;10.90;;;22.20;99.90;;;;;;4826586;29;20194;-85
2022/08/27 06:31:05;;;;;;;16.50;10.50;;;22.30;99.90;;;;;;4826903;29;20202;-87
2022/08/27 06:33:33;;;;;;;17.87;11.03;;;22.40;99.90;;;;;;4814962;29;20205;-87
2022/08/27 06:36:00;;;;;;;19.03;10.97;;;22.50;99.90;;;;;;4829628;29;20230;-87
2022/08/27 06:38:28;;;;;;;13.97;10.63;;;22.50;99.90;;;;;;4829919;29;20237;-84
2022/08/27 06:40:56;;;;;;;16.70;11.27;;;22.70;99.90;;;;;;4829628;29;20229;-89
2022/08/27 06:43:24;;;;;;;19.40;11.30;;;22.80;99.90;;;;;;4829477;29;20247;-84
2022/08/27 06:45:52;;;;;;;21.57;11.57;;;22.80;99.90;;;;;;4829767;29;20270;-88
2022/08/27 06:48:19;;;;;;;22.27;11.25;;;22.80;99.90;;;;;;4829828;29;20635;-87
2022/08/27 06:50:46;;;;;;;19.20;10.87;;;22.80;99.90;;;;;;4831071;29;20246;-87
2022/08/27 06:53:13;;;;;;;18.00;11.00;;;22.90;99.90;;;;;;4844845;29;20278;-88
2022/08/27 06:55:46;;;;;;;19.57;10.97;;;23.00;99.90;;;;;;4846384;29;20294;-85
2022/08/27 06:58:15;;;;;;;21.07;11.43;;;23.10;99.90;;;;;;4847784;29;20378;-88
2022/08/27 07:00:43;;;;;;;17.90;11.27;;;23.20;99.90;;;;;;4844982;29;20226;-85
2022/08/27 07:03:14;;;;;;;16.45;11.32;;;23.30;99.90;;;;;;4844599;29;20644;-88
2022/08/27 07:05:41;;;;;;;16.85;10.88;;;23.40;99.90;;;;;;4845699;29;20657;-89
2022/08/27 07:08:09;;;;;;;21.70;11.90;;;23.50;99.90;;;;;;4846224;29;20254;-87
2022/08/27 07:10:37;;;;;;;19.17;11.48;;;23.50;99.90;;;;;;4844409;29;20206;-88
2022/08/27 07:13:04;;;;;;;17.02;11.07;;;23.60;99.90;;;;;;4844468;29;20255;-89
2022/08/27 07:15:31;;;;;;;20.07;11.27;;;23.70;99.90;;;;;;4844323;29;20235;-87
2022/08/27 07:18:00;;;;;;;14.07;10.03;;;23.70;99.90;;;;;;4844411;29;20225;-86
2022/08/27 07:20:30;;;;;;;15.77;11.00;;;23.70;99.90;;;;;;4844126;29;20675;-88
2022/08/27 07:22:58;;;;;;;17.03;10.90;;;23.80;99.90;;;;;;4846057;29;20206;-89
2022/08/27 07:25:25;;;;;;;18.90;10.98;;;23.90;99.90;;;;;;4845453;29;20218;-88
2022/08/27 07:27:52;;;;;;;16.23;10.77;;;24.00;99.90;;;;;;4844602;29;20257;-88
2022/08/27 07:30:19;;;;;;;16.85;10.60;;;24.10;99.90;;;;;;4844668;29;20308;-84
2022/08/27 07:32:47;;;;;;;25.27;11.60;;;24.30;99.90;;;;;;4844435;29;20255;-88
2022/08/27 07:35:14;;;;;;;21.65;11.48;;;24.40;99.90;;;;;;4844853;29;20210;-86
2022/08/27 07:37:41;;;;;;;15.45;10.43;;;24.50;99.90;;;;;;4843951;29;20266;-82
2022/08/27 07:40:15;;;;;;;14.48;10.35;;;24.70;99.90;;;;;;4844107;29;20660;-86
2022/08/27 07:45:28;;;;;;;18.73;10.30;;;24.80;99.90;;;;;;4843973;29;20266;-87
2022/08/27 07:47:55;;;;;;;18.58;10.40;;;25.00;99.90;;;;;;4845428;29;20198;-82
2022/08/27 07:50:23;;;;;;;18.83;10.77;;;25.10;99.90;;;;;;4843140;29;20242;-73
2022/08/27 07:52:50;;;;;;;19.20;10.75;;;25.20;99.90;;;;;;4827877;29;20259;-72
2022/08/27 07:55:18;;;;;;;15.85;10.52;;;25.30;99.90;;;;;;4844388;29;20202;-72
2022/08/27 07:57:46;;;;;;;15.65;10.70;;;25.40;99.90;;;;;;4828223;29;20313;-73
2022/08/27 08:00:14;;;;;;;17.63;10.25;;;25.40;99.90;;;;;;4827761;29;20263;-71
2022/08/27 08:02:43;;;;;;;19.45;10.50;;;25.60;99.90;;;;;;4828043;29;20207;-70
2022/08/27 08:05:12;;;;;;;16.52;10.25;;;25.70;99.90;;;;;;4827339;29;20680;-73
2022/08/27 08:07:40;;;;;;;25.35;11.15;;;26.00;99.90;;;;;;4844242;29;20194;-72
2022/08/27 08:10:09;;;;;;;19.17;11.00;;;26.60;99.90;;;;;;4844300;29;20202;-72
2022/08/27 08:12:38;;;;;;;18.85;10.25;;;27.60;99.90;;;;;;4844114;29;20190;-71
2022/08/27 08:15:08;;;;;;;14.95;10.05;;;28.80;99.90;;;;;;4827486;29;20250;-70
2022/08/27 08:17:36;;;;;;;17.65;10.32;;;30.00;99.90;;;;;;4827398;29;20649;-69
2022/08/27 08:20:05;;;;;;;17.50;10.65;;;30.70;99.90;;;;;;4827293;29;20627;-71
2022/08/27 08:22:49;;;;;;;15.45;10.32;;;31.40;99.90;;;;;;4827247;29;20209;-72
2022/08/27 08:25:17;;;;;;;16.42;9.57;;;31.80;99.90;;;;;;4843891;29;20609;-74
2022/08/27 08:27:44;;;;;;;14.40;9.68;;;32.00;98.90;;;;;;4843652;29;20281;-70
2022/08/27 08:30:11;;;;;;;26.42;10.63;;;32.10;97.10;;;;;;4827499;29;20724;-70
2022/08/27 08:32:38;;;;;;;14.50;9.70;;;32.20;95.20;;;;;;4827077;29;20271;-70
2022/08/27 08:35:06;;;;;;;14.73;10.07;;;32.20;94.50;;;;;;4827373;29;20289;-70
2022/08/27 08:37:34;;;;;;;15.55;9.40;;;31.90;94.00;;;;;;4827322;29;20716;-76
2022/08/27 08:40:02;;;;;;;16.30;10.13;;;32.20;93.90;;;;;;4827510;29;20206;-72
2022/08/27 08:42:43;;;;;;;12.85;9.25;;;32.70;93.00;;;;;;4827188;29;20224;-71
2022/08/27 08:45:22;;;;;;;16.65;9.93;;;33.10;92.00;;;;;;4827115;29;20230;-69
2022/08/27 08:47:55;;;;;;;13.07;9.60;;;33.00;91.60;;;;;;4827174;29;20233;-68
2022/08/27 08:50:33;;;;;;;19.20;10.02;;;33.20;91.30;;;;;;4826699;29;20721;-70
2022/08/27 08:53:33;;;;;;;15.27;9.32;;;33.60;90.60;;;;;;4826588;29;20246;-71
2022/08/27 08:56:06;;;;;;;14.98;9.38;;;33.70;90.20;;;;;;4826920;29;20248;-69
2022/08/27 08:58:51;;;;;;;19.05;10.32;;;34.10;86.00;;;;;;4826979;29;20330;-70
2022/08/27 09:01:20;;;;;;;21.60;10.32;;;34.20;81.80;;;;;;4826594;29;20210;-69
2022/08/27 09:04:02;;;;;;;18.02;10.43;;;34.10;82.20;;;;;;4842920;29;20206;-69
2022/08/27 09:07:00;;;;;;;13.50;9.85;;;34.10;81.20;;;;;;4826516;29;20262;-70
2022/08/27 09:10:09;;;;;;;20.23;10.35;;;34.20;78.30;;;;;;4826529;29;20301;-70
2022/08/27 09:12:36;;;;;;;18.67;10.15;;;34.40;78.90;;;;;;4826604;29;20608;-69
2022/08/27 09:15:20;;;;;;;13.98;9.23;;;34.70;76.90;;;;;;4826738;29;20649;-70
2022/08/27 09:17:49;;;;;;;16.05;9.60;;;34.80;74.80;;;;;;4826418;29;20661;-68
2022/08/27 09:20:19;;;;;;;16.40;10.05;;;34.60;73.60;;;;;;4842773;29;20205;-70
2022/08/27 09:23:07;;;;;;;15.00;9.73;;;34.80;73.70;;;;;;4843044;29;20206;-70
2022/08/27 09:25:37;;;;;;;20.65;10.65;;;34.80;71.10;;;;;;4826338;29;20320;-70
2022/08/27 09:29:14;;;;;;;13.43;9.48;;;34.70;69.70;;;;;;4826696;29;20293;-69
2022/08/27 09:31:07;;;;;;;14.77;9.73;;;34.70;69.30;;;;;;4826214;29;20683;-69
2022/08/27 09:33:36;;;;;;;16.52;10.32;;;34.80;68.60;;;;;;4826499;29;20309;-70
2022/08/27 09:36:23;;;;;;;20.13;11.27;;;34.70;66.30;;;;;;4826192;29;20376;-69
2022/08/27 09:39:01;;;;;;;17.05;10.32;;;35.00;66.80;;;;;;4826480;29;20263;-70
2022/08/27 09:41:34;;;;;;;17.40;10.02;;;35.30;67.70;;;;;;4825966;29;20266;-69
2022/08/27 09:44:08;;;;;;;16.83;9.85;;;35.60;66.00;;;;;;4842435;29;20230;-71
2022/08/27 09:46:35;;;;;;;24.40;11.10;;;35.60;66.20;;;;;;4826488;29;20206;-72
2022/08/27 09:49:16;;;;;;;18.63;11.00;;;35.80;65.10;;;;;;4842555;29;20233;-69
2022/08/27 09:51:45;;;;;;;19.42;10.50;;;36.00;64.40;;;;;;4834521;29;20714;-70
2022/08/27 09:54:27;;;;;;;15.00;10.40;;;35.90;64.20;;;;;;4841561;29;20198;-70
2022/08/27 09:56:57;;;;;;;14.68;10.02;;;36.40;64.30;;;;;;4841153;29;20209;-72
2022/08/27 09:59:52;;;;;;;15.73;10.27;;;36.80;61.60;;;;;;4841043;29;20218;-71
2022/08/27 10:02:22;;;;;;;12.68;10.20;;;36.90;61.00;;;;;;4840936;29;20239;-69
2022/08/27 10:04:57;;;;;;;17.25;10.27;;;37.00;60.20;;;;;;4841024;29;20325;-69
2022/08/27 10:07:52;;;;;;;14.40;10.45;;;37.40;59.90;;;;;;4840493;29;20198;-69
2022/08/27 10:10:25;;;;;;;17.95;11.10;;;37.40;59.20;;;;;;4841092;29;20206;-70
2022/08/27 10:13:00;;;;;;;14.45;9.77;;;37.60;59.70;;;;;;4840887;29;20654;-69
2022/08/27 10:16:01;;;;;;;15.15;9.48;;;38.00;56.50;;;;;;4840925;29;20201;-69
2022/08/27 10:18:40;;;;;;;15.38;9.65;;;38.10;53.70;;;;;;4839889;29;20305;-68
2022/08/27 10:21:27;;;;;;;16.58;9.40;;;37.90;53.30;;;;;;4824642;29;20275;-68
2022/08/27 10:24:12;;;;;;;19.20;9.95;;;38.20;53.20;;;;;;4788420;29;20207;-67
2022/08/27 10:27:08;;;;;;;15.32;9.63;;;38.30;52.80;;;;;;4788215;29;20654;-68
2022/08/27 10:30:12;;;;;;;12.55;9.25;;;38.40;52.00;;;;;;4803350;29;20215;-69
2022/08/27 10:32:54;;;;;;;16.10;9.70;;;38.70;51.30;;;;;;4788153;29;20253;-69
2022/08/27 10:35:32;;;;;;;13.50;9.18;;;38.90;50.70;;;;;;4788301;29;20208;-68
2022/08/27 10:38:30;;;;;;;14.38;9.75;;;39.10;49.50;;;;;;4803202;29;20243;-72
2022/08/27 10:41:11;;;;;;;14.13;9.30;;;39.10;49.10;;;;;;4788264;29;20318;-67
2022/08/27 10:44:11;;;;;;;13.43;9.40;;;39.30;48.40;;;;;;4788269;29;20651;-69
2022/08/27 10:46:41;;;;;;;14.70;9.35;;;39.50;49.30;;;;;;4803309;29;20333;-69
2022/08/27 10:49:24;;;;;;;14.38;8.23;;;39.40;49.50;;;;;;4788190;29;20718;-70
2022/08/27 10:51:58;;;;;;;11.43;8.18;;;39.60;47.10;;;;;;4803299;29;20247;-69
2022/08/27 10:54:51;;;;;;;11.85;8.68;;;39.70;46.60;;;;;;4803366;29;20238;-70
2022/08/27 10:57:27;;;;;;;12.80;8.88;;;40.00;46.40;;;;;;4788149;29;20268;-69
2022/08/27 11:00:18;;;;;;;14.52;9.30;;;40.00;47.40;;;;;;4793936;29;20214;-69
2022/08/27 11:03:12;;;;;;;14.25;9.30;;;40.20;48.00;;;;;;4841827;29;20653;-69
2022/08/27 11:05:44;;;;;;;14.77;8.75;;;40.00;46.90;;;;;;4840756;29;20261;-69
2022/08/27 11:08:24;;;;;;;12.20;9.10;;;40.00;47.10;;;;;;4840671;29;20234;-70
2022/08/27 11:10:56;;;;;;;13.90;9.02;;;40.00;46.90;;;;;;4840531;29;20218;-70
2022/08/27 11:13:23;;;;;;;12.27;9.40;;;40.00;47.60;;;;;;4841823;29;20222;-73
2022/08/27 11:15:52;;;;;;;13.25;9.40;;;40.10;47.50;;;;;;4840926;29;20202;-79
2022/08/27 11:18:46;;;;;;;11.05;8.70;;;40.60;47.10;;;;;;4843432;29;20237;-78
2022/08/27 11:21:24;;;;;;;12.65;9.30;;;40.60;46.70;;;;;;4844989;29;20237;-74
2022/08/27 11:24:23;;;;;;;11.73;9.55;;;40.70;46.10;;;;;;4843582;29;20241;-78
2022/08/27 11:26:55;;;;;;;15.93;10.07;;;40.50;45.20;;;;;;4843731;29;20250;-72
2022/08/27 11:29:35;;;;;;;16.20;9.65;;;40.00;45.60;;;;;;4844060;29;20225;-75
2022/08/27 11:32:37;;;;;;;15.10;9.60;;;40.10;45.70;;;;;;4843457;29;20237;-73
2022/08/27 11:35:27;;;;;;;17.95;10.10;;;40.40;43.90;;;;;;4844913;29;20262;-76
2022/08/27 11:38:01;;;;;;;13.65;9.85;;;40.70;44.80;;;;;;4843703;29;20226;-73
2022/08/27 11:40:48;;;;;;;13.45;10.05;;;41.00;44.50;;;;;;4828532;29;20206;-72
2022/08/27 11:43:24;;;;;;;13.05;9.82;;;41.50;43.90;;;;;;4843148;29;20617;-71
2022/08/27 11:45:59;;;;;;;13.00;10.15;;;42.00;43.60;;;;;;4844815;29;20264;-71
2022/08/27 11:48:42;;;;;;;13.57;9.85;;;42.10;43.90;;;;;;4843437;29;20194;-72
2022/08/27 11:51:11;;;;;;;15.48;10.55;;;42.50;42.50;;;;;;4842957;29;20640;-72
2022/08/27 11:53:55;;;;;;;12.32;9.73;;;42.20;41.50;;;;;;4844331;29;20195;-77
2022/08/27 11:56:28;;;;;;;13.77;9.75;;;42.10;42.20;;;;;;4843398;29;20597;-76
2022/08/27 11:59:14;;;;;;;12.75;9.77;;;42.30;40.10;;;;;;4844683;29;20276;-75
2022/08/27 12:01:41;;;;;;;12.48;9.68;;;42.50;40.70;;;;;;4842875;29;20204;-73
2022/08/27 12:04:40;;;;;;;11.77;9.07;;;42.90;40.50;;;;;;4843850;29;20198;-79
2022/08/27 12:07:32;;;;;;;13.60;9.63;;;43.60;40.80;;;;;;4842790;29;20206;-71
2022/08/27 12:10:08;;;;;;;14.85;10.07;;;43.40;40.40;;;;;;4842992;29;20209;-71
2022/08/27 12:12:47;;;;;;;16.50;10.65;;;42.40;41.20;;;;;;4843003;29;20225;-73
2022/08/27 12:15:36;;;;;;;20.52;11.27;;;42.20;40.60;;;;;;4841448;29;20194;-77
2022/08/27 12:18:08;;;;;;;14.20;9.98;;;42.10;42.80;;;;;;4842618;29;20274;-75
2022/08/27 12:20:56;;;;;;;15.25;10.27;;;42.10;38.60;;;;;;4842581;29;20238;-74
2022/08/27 12:23:39;;;;;;;13.05;10.13;;;41.50;37.60;;;;;;4842508;29;20340;-74
2022/08/27 12:26:33;;;;;;;12.90;10.43;;;40.90;39.10;;;;;;4842618;29;20238;-73
2022/08/27 12:29:37;;;;;;;14.80;10.85;;;40.50;39.70;;;;;;4842154;29;20297;-74
2022/08/27 12:32:30;;;;;;;14.15;9.80;;;40.40;39.10;;;;;;4842787;29;20214;-75
2022/08/27 12:35:02;;;;;;;13.80;10.02;;;40.80;40.00;;;;;;4843968;29;20206;-75
2022/08/27 12:37:35;;;;;;;14.00;10.23;;;41.50;40.10;;;;;;4842437;29;20233;-74
2022/08/27 12:40:34;;;;;;;14.80;10.93;;;41.60;39.70;;;;;;4842178;29;20216;-73
2022/08/27 12:43:06;;;;;;;16.17;10.63;;;41.50;39.90;;;;;;4823150;29;20235;-73
2022/08/27 12:45:40;;;;;;;15.50;10.73;;;41.40;40.50;;;;;;4822927;29;20700;-74
2022/08/27 12:48:08;;;;;;;16.25;11.25;;;40.80;37.40;;;;;;4808074;29;20267;-74
2022/08/27 12:50:37;;;;;;;17.83;12.02;;;40.70;39.50;;;;;;4822911;29;20244;-73
2022/08/27 12:53:18;;;;;;;14.82;11.48;;;40.80;39.90;;;;;;4807705;29;20234;-72
2022/08/27 12:56:08;;;;;;;13.18;11.25;;;40.90;40.70;;;;;;4823191;29;20203;-74
2022/08/27 12:58:37;;;;;;;16.10;11.15;;;40.60;39.30;;;;;;4807895;29;20299;-74
2022/08/27 13:01:14;;;;;;;16.33;11.32;;;40.70;39.60;;;;;;4807803;29;20244;-72
2022/08/27 13:03:48;;;;;;;14.43;11.10;;;40.80;39.70;;;;;;4807965;29;20253;-73
2022/08/27 13:06:29;;;;;;;17.20;11.32;;;40.60;38.40;;;;;;4822970;29;20287;-72
2022/08/27 13:08:58;;;;;;;17.65;11.73;;;40.20;37.00;;;;;;4822913;29;20662;-71
2022/08/27 13:11:29;;;;;;;13.48;11.38;;;40.00;37.10;;;;;;4822744;29;20203;-72
2022/08/27 13:14:10;;;;;;;13.55;11.73;;;39.60;38.90;;;;;;4807650;29;20206;-74
2022/08/27 13:16:45;;;;;;;18.58;12.25;;;39.20;39.50;;;;;;4807807;29;20393;-73
2022/08/27 13:19:21;;;;;;;14.70;11.15;;;39.00;38.90;;;;;;4809320;29;20203;-73
2022/08/27 13:21:49;;;;;;;14.48;11.43;;;38.80;38.60;;;;;;4841838;29;20245;-74